Time;durP1;ratioP1;P1;durP2;ratioP2;P2;SDS_P1;SDS_P2;PMS_P1;PMS_P2;Temp;Humidity;BMP_temperature;BMP_pressure;BME280_temperature;BME280_humidity;BME280_pressure;Samples;Min_cycle;Max_cycle;Signal;HPM_P1;HPM_P2
2022/03/12 00:00:38;;;;;;;5.28;2.97;;;;;;;-9.53;43.45;99995.00;4832981;29;20057;-82
2022/03/12 00:03:05;;;;;;;4.68;2.47;;;;;;;-9.58;43.19;99986.34;4834865;29;20065;-82
2022/03/12 00:05:35;;;;;;;5.13;2.63;;;;;;;-9.62;43.00;99990.59;4848241;29;20054;-82
2022/03/12 00:08:04;;;;;;;7.20;2.83;;;;;;;-9.61;43.33;99988.88;4828203;29;20053;-81
2022/03/12 00:10:33;;;;;;;3.72;2.38;;;;;;;-9.69;43.25;99981.03;4828100;29;20106;-81
2022/03/12 00:13:00;;;;;;;5.50;3.03;;;;;;;-9.69;43.03;99981.03;4813140;29;20495;-80
2022/03/12 00:15:26;;;;;;;5.78;3.05;;;;;;;-9.67;43.11;99988.81;4817221;29;20194;-80
2022/03/12 00:17:53;;;;;;;4.82;2.65;;;;;;;-9.78;42.95;99978.31;4847226;29;20042;-81
2022/03/12 00:20:22;;;;;;;6.18;3.03;;;;;;;-9.73;42.95;99992.19;4828436;29;20054;-81
2022/03/12 00:22:51;;;;;;;2.60;2.30;;;;;;;-9.77;42.88;99981.81;4844288;29;20054;-81
2022/03/12 00:25:21;;;;;;;4.65;2.78;;;;;;;-9.79;42.86;99984.34;4812983;29;20066;-83
2022/03/12 00:27:48;;;;;;;23.92;9.13;;;;;;;-9.73;42.58;99991.34;4798013;29;20190;-81
2022/03/12 00:30:22;;;;;;;5.68;3.30;;;;;;;-9.73;42.94;99987.03;4824661;29;20066;-81
2022/03/12 00:32:49;;;;;;;6.55;2.78;;;;;;;-9.78;42.90;99980.91;4794424;29;20054;-80
2022/03/12 00:35:20;;;;;;;4.93;2.90;;;;;;;-9.79;42.79;99979.19;4809944;29;20503;-81
2022/03/12 00:37:46;;;;;;;6.18;2.83;;;;;;;-9.75;42.79;99975.78;4825239;29;20381;-81
2022/03/12 00:40:15;;;;;;;6.30;3.38;;;;;;;-9.72;42.76;99986.16;4824879;29;20131;-82
2022/03/12 00:42:42;;;;;;;6.22;3.22;;;;;;;-9.74;42.86;99971.47;4825705;29;20062;-81
2022/03/12 00:45:10;;;;;;;8.05;2.90;;;;;;;-9.68;42.93;99964.66;4812869;29;20054;-80
2022/03/12 00:47:36;;;;;;;7.20;2.70;;;;;;;-9.69;42.72;99967.22;4836904;29;20074;-82
2022/03/12 00:50:03;;;;;;;4.60;3.17;;;;;;;-9.68;42.67;99976.72;4840059;29;20054;-81
2022/03/12 00:52:29;;;;;;;4.75;2.50;;;;;;;-9.68;42.26;99963.78;4822509;29;20149;-81
2022/03/12 00:54:56;;;;;;;4.82;3.30;;;;;;;-9.64;42.18;99970.72;4821515;29;20503;-81
2022/03/12 00:57:22;;;;;;;7.53;3.33;;;;;;;-9.64;42.26;99965.56;4820940;29;20058;-81
2022/03/12 00:59:48;;;;;;;6.18;3.17;;;;;;;-9.64;42.24;99973.31;4828998;29;20054;-82
2022/03/12 01:02:18;;;;;;;15.57;3.05;;;;;;;-9.68;42.09;99971.53;4828879;29;20054;-81
2022/03/12 01:04:44;;;;;;;4.45;2.85;;;;;;;-9.78;42.21;99970.56;4798897;29;20054;-81
2022/03/12 01:07:11;;;;;;;5.05;3.00;;;;;;;-9.81;42.35;99955.03;4828478;29;20058;-81
2022/03/12 01:09:38;;;;;;;5.72;2.95;;;;;;;-9.73;42.04;99968.06;4809851;29;20054;-81
2022/03/12 01:12:06;;;;;;;7.43;3.15;;;;;;;-9.73;42.04;99978.41;4825407;29;20069;-81
2022/03/12 01:14:32;;;;;;;5.32;2.60;;;;;;;-9.74;42.12;99969.78;4808713;29;20058;-82
2022/03/12 01:16:58;;;;;;;5.07;3.10;;;;;;;-9.84;42.11;99950.69;4825620;29;20050;-81
2022/03/12 01:19:25;;;;;;;7.55;2.88;;;;;;;-9.78;42.47;99955.03;4793715;29;20086;-81
2022/03/12 01:21:52;;;;;;;7.85;2.95;;;;;;;-9.79;42.64;99968.84;4808518;29;20055;-82
2022/03/12 01:24:18;;;;;;;7.22;2.55;;;;;;;-9.78;42.71;99965.38;4824006;29;20154;-81
2022/03/12 01:26:45;;;;;;;4.70;2.92;;;;;;;-9.85;42.82;99966.19;4824337;29;20058;-81
2022/03/12 01:29:11;;;;;;;8.57;2.88;;;;;;;-9.95;43.62;99961.75;4826223;29;20145;-82
2022/03/12 01:31:37;;;;;;;6.80;3.90;;;;;;;-10.11;43.77;99956.38;4853392;29;20140;-81
2022/03/12 01:34:04;;;;;;;8.35;3.95;;;;;;;-10.43;45.34;99957.69;4818873;29;20053;-80
2022/03/12 01:36:30;;;;;;;9.20;3.58;;;;;;;-10.67;46.28;99964.25;4832073;29;20092;-81
2022/03/12 01:38:58;;;;;;;25.83;6.57;;;;;;;-10.96;47.76;99958.63;4813823;29;20060;-81
2022/03/12 01:41:28;;;;;;;51.95;6.93;;;;;;;-10.95;46.98;99962.06;4811380;29;20065;-81
2022/03/12 01:43:57;;;;;;;20.95;7.50;;;;;;;-11.01;48.10;99963.72;4796846;29;20400;-82
2022/03/12 01:46:45;;;;;;;22.15;6.43;;;;;;;-11.04;48.23;99968.81;4843191;29;20450;-83
2022/03/12 01:49:15;;;;;;;18.50;7.35;;;;;;;-11.04;48.07;99967.97;4826421;29;20074;-80
2022/03/12 01:51:44;;;;;;;16.17;6.57;;;;;;;-11.24;49.77;99959.88;4842713;29;20057;-84
2022/03/12 01:54:10;;;;;;;30.05;7.88;;;;;;;-11.20;49.10;99951.34;4811742;29;20091;-80
2022/03/12 01:56:38;;;;;;;17.10;6.97;;;;;;;-11.20;49.59;99946.19;4811229;29;20062;-82
2022/03/12 01:59:06;;;;;;;16.27;7.88;;;;;;;-11.25;49.90;99952.97;4826076;29;20054;-80
2022/03/12 02:01:32;;;;;;;18.52;7.15;;;;;;;-11.43;50.61;99958.69;4811058;29;20411;-82
2022/03/12 02:04:00;;;;;;;18.98;6.47;;;;;;;-11.60;51.51;99953.22;4826348;29;20057;-80
2022/03/12 02:06:28;;;;;;;22.02;6.70;;;;;;;-11.78;52.30;99950.28;4795978;29;20049;-79
2022/03/12 02:08:58;;;;;;;17.88;6.15;;;;;;;-11.90;52.82;99952.66;4826266;29;20049;-80
2022/03/12 02:11:28;;;;;;;25.45;4.43;;;;;;;-11.97;53.45;99958.53;4796338;29;20107;-80
2022/03/12 02:13:59;;;;;;;10.93;5.63;;;;;;;-12.00;53.19;99959.31;4810852;29;20054;-81
2022/03/12 02:16:26;;;;;;;14.45;5.65;;;;;;;-12.11;53.62;99961.72;4817921;29;20050;-80
2022/03/12 02:18:52;;;;;;;13.25;5.60;;;;;;;-12.17;54.69;99966.72;4780044;29;20054;-82
2022/03/12 02:21:34;;;;;;;13.77;5.70;;;;;;;-12.27;55.19;99962.22;4808117;29;20054;-83
2022/03/12 02:24:22;;;;;;;14.43;7.43;;;;;;;-12.27;55.00;99970.81;4808029;29;20149;-78
2022/03/12 02:26:48;;;;;;;49.03;6.30;;;;;;;-12.30;55.16;99964.72;4807921;29;20141;-80
2022/03/12 02:29:20;;;;;;;12.45;6.13;;;;;;;-12.33;55.13;99964.69;4792686;29;20058;-79
2022/03/12 02:31:51;;;;;;;33.55;7.82;;;;;;;-12.40;55.23;99962.81;4789670;29;20063;-79
2022/03/12 02:34:21;;;;;;;33.08;7.05;;;;;;;-12.44;55.59;99966.16;4775142;29;20059;-79
2022/03/12 02:36:49;;;;;;;25.77;6.95;;;;;;;-12.45;55.63;99969.53;4789787;29;20059;-77
2022/03/12 02:39:15;;;;;;;16.60;6.90;;;;;;;-12.55;56.25;99973.63;4804643;29;20058;-78
2022/03/12 02:41:41;;;;;;;13.73;6.97;;;;;;;-12.54;55.96;99959.91;4805646;29;20055;-81
2022/03/12 02:44:16;;;;;;;15.57;6.85;;;;;;;-12.59;56.09;99970.13;4812793;29;20526;-80
2022/03/12 02:47:14;;;;;;;15.80;6.55;;;;;;;-12.64;56.58;99968.25;4822994;29;20050;-81
2022/03/12 02:49:51;;;;;;;13.43;4.28;;;;;;;-12.72;56.13;99971.53;4807682;29;20149;-80
2022/03/12 02:52:18;;;;;;;17.38;6.38;;;;;;;-12.74;56.18;99965.47;4822565;29;20065;-79
2022/03/12 02:54:46;;;;;;;9.55;5.07;;;;;;;-12.73;56.49;99961.19;4823871;29;20059;-80
2022/03/12 02:57:12;;;;;;;12.70;4.93;;;;;;;-12.85;56.30;99955.78;4807546;29;20154;-80
2022/03/12 02:59:42;;;;;;;10.98;6.00;;;;;;;-12.75;55.88;99975.72;4792763;29;20089;-80
2022/03/12 03:02:08;;;;;;;11.98;5.28;;;;;;;-12.67;56.00;99966.50;4823929;29;20082;-81
2022/03/12 03:04:35;;;;;;;26.63;6.07;;;;;;;-12.58;55.69;99976.13;4822746;29;20137;-79
2022/03/12 03:07:03;;;;;;;9.98;5.65;;;;;;;-12.55;55.45;99974.50;4807697;29;20066;-81
2022/03/12 03:09:29;;;;;;;6.32;3.45;;;;;;;-12.53;55.45;99971.94;4823924;29;20440;-81
2022/03/12 03:11:57;;;;;;;9.10;4.63;;;;;;;-12.67;55.87;99963.03;4822651;29;20115;-79
2022/03/12 03:14:26;;;;;;;13.43;4.57;;;;;;;-12.65;55.48;99967.38;4807549;29;20069;-80
2022/03/12 03:16:58;;;;;;;7.68;3.85;;;;;;;-12.64;55.33;99966.53;4822301;29;20054;-79
2022/03/12 03:19:26;;;;;;;8.63;4.18;;;;;;;-12.65;55.77;99972.53;4813390;29;20063;-81
2022/03/12 03:21:56;;;;;;;9.40;5.40;;;;;;;-12.76;55.73;99977.44;4789342;29;20122;-81
2022/03/12 03:24:23;;;;;;;8.05;4.75;;;;;;;-12.72;55.79;99975.81;4807260;29;20093;-84
2022/03/12 03:26:54;;;;;;;30.05;4.38;;;;;;;-12.79;55.99;99973.91;4796976;29;20483;-76
2022/03/12 03:29:22;;;;;;;4.97;3.03;;;;;;;-12.76;55.78;99981.72;4826796;29;20050;-81
2022/03/12 03:31:49;;;;;;;10.30;4.03;;;;;;;-12.79;56.19;99989.34;4845704;29;20057;-79
2022/03/12 03:34:16;;;;;;;31.35;4.40;;;;;;;-12.64;55.67;99984.56;4828352;29;20422;-80
2022/03/12 03:36:43;;;;;;;6.07;4.13;;;;;;;-12.66;55.25;99983.69;4845037;29;20499;-84
2022/03/12 03:39:09;;;;;;;11.60;6.43;;;;;;;-12.72;55.80;99975.81;4828670;29;20054;-81
2022/03/12 03:41:35;;;;;;;17.25;4.82;;;;;;;-12.65;55.45;99981.97;4828774;29;20049;-83
2022/03/12 03:44:02;;;;;;;44.92;4.60;;;;;;;-12.61;55.57;99988.94;4795325;29;20062;-82
2022/03/12 03:46:28;;;;;;;11.02;4.65;;;;;;;-12.54;54.95;99991.69;4819734;29;20058;-80
2022/03/12 03:48:54;;;;;;;10.13;5.07;;;;;;;-12.52;54.62;99997.75;4795688;29;20092;-79
2022/03/12 03:51:21;;;;;;;5.50;3.72;;;;;;;-12.59;54.37;99989.84;4827612;29;20145;-78
2022/03/12 03:53:49;;;;;;;3.97;3.22;;;;;;;-12.69;54.47;99988.75;4796145;29;20058;-84
2022/03/12 03:56:15;;;;;;;7.55;3.47;;;;;;;-12.65;54.70;99990.56;4811193;29;20069;-84
2022/03/12 03:58:41;;;;;;;6.53;3.70;;;;;;;-12.69;54.56;99996.47;4828217;29;20050;-78
2022/03/12 04:01:17;;;;;;;8.82;4.70;;;;;;;-12.72;54.41;100001.53;4831009;29;20140;-84
2022/03/12 04:03:48;;;;;;;16.17;3.80;;;;;;;-12.66;54.27;99991.41;4816482;29;20117;-84
2022/03/12 04:06:15;;;;;;;17.10;4.80;;;;;;;-12.49;53.76;100000.38;4811341;29;20537;-86
2022/03/12 04:08:42;;;;;;;49.15;5.68;;;;;;;-12.45;53.86;99985.84;4794342;29;20077;-85
2022/03/12 04:11:14;;;;;;;6.88;4.10;;;;;;;-12.32;53.09;99992.16;4824446;29;20070;-83
2022/03/12 04:13:40;;;;;;;9.52;4.45;;;;;;;-12.09;53.00;99993.53;4825451;29;20066;-85
2022/03/12 04:16:06;;;;;;;12.90;6.32;;;;;;;-12.02;53.01;99992.81;4794058;29;20065;-83
2022/03/12 04:18:33;;;;;;;14.55;5.75;;;;;;;-11.74;52.65;100001.06;4819778;29;20054;-79
2022/03/12 04:21:00;;;;;;;9.52;4.78;;;;;;;-11.69;51.85;99983.13;4794177;29;20125;-79
2022/03/12 04:23:27;;;;;;;10.82;4.63;;;;;;;-11.57;51.59;99966.16;4809274;29;20058;-80
2022/03/12 04:25:55;;;;;;;12.18;5.47;;;;;;;-11.32;51.77;99987.25;4811491;29;20108;-81
2022/03/12 04:28:24;;;;;;;17.10;6.20;;;;;;;-11.16;50.77;99984.09;4825176;29;20124;-80
2022/03/12 04:30:50;;;;;;;7.75;5.18;;;;;;;-11.04;50.42;99979.16;4790748;29;20115;-82
2022/03/12 04:33:19;;;;;;;13.27;4.45;;;;;;;-10.97;50.01;99992.16;4805093;29;20051;-78
2022/03/12 04:35:46;;;;;;;30.33;7.00;;;;;;;-10.98;50.30;99998.16;4805154;29;20443;-79
2022/03/12 04:38:13;;;;;;;10.60;6.40;;;;;;;-10.91;49.99;99995.69;4805459;29;20535;-76
2022/03/12 04:40:41;;;;;;;14.07;6.53;;;;;;;-10.72;49.72;99996.88;4790727;29;20094;-77
2022/03/12 04:43:09;;;;;;;14.37;4.97;;;;;;;-10.61;49.15;99987.56;4775621;29;20050;-81
2022/03/12 04:45:36;;;;;;;10.98;5.20;;;;;;;-10.63;49.18;99991.88;4791132;29;20527;-86
2022/03/12 04:48:02;;;;;;;10.25;5.45;;;;;;;-10.60;49.29;99989.34;4807609;29;20062;-79
2022/03/12 04:50:28;;;;;;;6.65;4.68;;;;;;;-10.47;48.85;99986.91;4808722;29;20571;-80
2022/03/12 04:52:57;;;;;;;15.55;4.85;;;;;;;-10.45;48.89;99974.91;4808783;29;20065;-79
2022/03/12 04:55:26;;;;;;;14.35;5.20;;;;;;;-10.33;49.08;99985.41;4808424;29;20069;-81
2022/03/12 04:57:53;;;;;;;16.05;5.32;;;;;;;-10.10;48.67;99986.56;4824760;29;20054;-80
2022/03/12 05:00:27;;;;;;;11.30;5.18;;;;;;;-9.99;48.51;99978.94;4825267;29;20058;-80
2022/03/12 05:02:55;;;;;;;18.13;4.72;;;;;;;-10.04;48.08;99978.88;4813031;29;20110;-79
2022/03/12 05:05:22;;;;;;;9.98;4.93;;;;;;;-10.26;47.76;99981.22;4830035;29;20118;-79
2022/03/12 05:07:48;;;;;;;20.13;5.97;;;;;;;-10.11;48.02;99984.81;4805222;29;20054;-80
2022/03/12 05:10:19;;;;;;;19.33;6.97;;;;;;;-9.89;47.63;99982.50;4829467;29;20089;-78
2022/03/12 05:12:50;;;;;;;15.65;5.30;;;;;;;-9.67;47.21;99979.31;4808578;29;20522;-78
2022/03/12 05:15:17;;;;;;;18.80;6.30;;;;;;;-9.67;46.63;99989.66;4822370;29;20054;-79
2022/03/12 05:17:47;;;;;;;29.55;7.35;;;;;;;-9.41;46.84;99994.25;4823512;29;20060;-79
2022/03/12 05:20:23;;;;;;;20.40;6.95;;;;;;;-9.33;46.77;99984.84;4789631;29;20538;-77
2022/03/12 05:22:50;;;;;;;8.93;4.32;;;;;;;-9.10;45.77;99980.78;4805708;29;20120;-79
2022/03/12 05:25:18;;;;;;;9.77;5.60;;;;;;;-9.07;45.53;99973.03;4790206;29;20511;-78
2022/03/12 05:27:52;;;;;;;12.63;6.10;;;;;;;-8.84;45.74;99980.13;4806279;29;20082;-78
2022/03/12 05:30:19;;;;;;;16.02;5.35;;;;;;;-8.76;45.53;99978.50;4789881;29;20094;-79
2022/03/12 05:32:50;;;;;;;13.37;5.80;;;;;;;-8.75;44.82;99979.34;4790482;29;20054;-78
2022/03/12 05:35:17;;;;;;;13.50;6.50;;;;;;;-8.65;44.97;99974.25;4805226;29;20051;-79
2022/03/12 05:37:51;;;;;;;14.27;7.38;;;;;;;-8.42;44.97;99974.41;4806071;29;20059;-78
2022/03/12 05:40:26;;;;;;;13.55;5.93;;;;;;;-8.41;44.14;99975.28;4806449;29;20062;-85
2022/03/12 05:42:58;;;;;;;9.98;5.22;;;;;;;-8.42;44.16;99978.75;4805162;29;20580;-80
2022/03/12 05:45:24;;;;;;;12.35;5.40;;;;;;;-8.44;44.18;99970.06;4804822;29;20404;-79
2022/03/12 05:47:51;;;;;;;15.40;5.95;;;;;;;-8.29;43.76;99980.50;4789920;29;20064;-79
2022/03/12 05:50:18;;;;;;;21.60;6.20;;;;;;;-8.09;44.08;99973.69;4789862;29;20055;-79
2022/03/12 05:52:47;;;;;;;14.10;6.38;;;;;;;-7.89;43.91;99967.75;4815206;29;20059;-78
2022/03/12 05:55:14;;;;;;;30.65;6.75;;;;;;;-7.67;42.99;99972.16;4809514;29;20059;-81
2022/03/12 05:57:40;;;;;;;14.90;6.72;;;;;;;-7.52;42.44;99965.28;4805724;29;20101;-80
2022/03/12 06:00:11;;;;;;;13.10;6.32;;;;;;;-7.45;42.99;99962.69;4804602;29;20504;-79
2022/03/12 06:02:44;;;;;;;10.60;6.18;;;;;;;-7.25;42.53;99956.69;4789951;29;20059;-79
2022/03/12 06:05:12;;;;;;;22.42;6.57;;;;;;;-7.12;42.07;99969.69;4790119;29;20058;-79
2022/03/12 06:07:38;;;;;;;21.27;7.05;;;;;;;-7.02;42.65;99956.72;4804899;29;20086;-79
2022/03/12 06:10:05;;;;;;;19.73;6.78;;;;;;;-6.79;42.13;99947.19;4804701;29;20467;-79
2022/03/12 06:12:32;;;;;;;11.23;6.80;;;;;;;-6.76;41.68;99947.19;4789247;29;20062;-80
2022/03/12 06:14:58;;;;;;;18.85;6.95;;;;;;;-6.62;41.68;99955.88;4789689;29;20054;-80
2022/03/12 06:17:25;;;;;;;18.17;8.07;;;;;;;-6.52;40.84;99943.69;4804523;29;20539;-79
2022/03/12 06:19:52;;;;;;;20.10;7.72;;;;;;;-6.64;40.69;99952.38;4804661;29;20188;-82
2022/03/12 06:22:18;;;;;;;23.13;6.65;;;;;;;-6.85;40.37;99954.97;4804653;29;20108;-79
2022/03/12 06:24:46;;;;;;;18.17;7.45;;;;;;;-6.81;40.42;99950.66;4804465;29;20059;-79
2022/03/12 06:27:13;;;;;;;18.70;7.20;;;;;;;-6.60;40.79;99951.50;4805985;29;20047;-80
2022/03/12 06:29:39;;;;;;;19.48;7.15;;;;;;;-6.36;40.85;99952.34;4791102;29;20059;-78
2022/03/12 06:32:07;;;;;;;17.30;7.55;;;;;;;-6.08;40.68;99945.34;4792813;29;20454;-79
2022/03/12 06:34:35;;;;;;;21.08;7.35;;;;;;;-5.59;40.26;99939.03;4823711;29;20056;-79
2022/03/12 06:37:02;;;;;;;20.95;7.75;;;;;;;-5.26;39.48;99937.97;4807836;29;20419;-79
2022/03/12 06:39:27;;;;;;;21.42;7.03;;;;;;;-5.07;38.79;99936.13;4814831;29;20050;-79
2022/03/12 06:41:55;;;;;;;17.85;5.85;;;;;;;-5.08;37.45;99935.22;4842008;29;20054;-80
2022/03/12 06:44:24;;;;;;;17.25;5.47;;;;;;;-5.14;36.98;99930.94;4841814;29;20093;-81
2022/03/12 06:46:50;;;;;;;12.25;5.63;;;;;;;-4.82;36.67;99937.63;4810877;29;20073;-80
2022/03/12 06:49:16;;;;;;;11.50;5.15;;;;;;;-4.81;36.61;99939.38;4810579;29;20050;-80
2022/03/12 06:51:42;;;;;;;17.45;5.22;;;;;;;-4.59;36.03;99936.56;4842201;29;20061;-80
2022/03/12 06:54:08;;;;;;;16.55;5.90;;;;;;;-4.91;36.63;99929.91;4825932;29;20054;-80
2022/03/12 06:56:34;;;;;;;15.40;5.80;;;;;;;-4.74;36.37;99941.06;4841898;29;20145;-78
2022/03/12 06:59:00;;;;;;;14.73;5.88;;;;;;;-4.79;37.05;99944.56;4813497;29;20058;-80
2022/03/12 07:01:27;;;;;;;15.80;6.07;;;;;;;-4.58;36.86;99948.75;4845358;29;20085;-80
2022/03/12 07:03:55;;;;;;;12.95;5.78;;;;;;;-4.51;36.24;99937.38;4814184;29;20485;-79
2022/03/12 07:06:21;;;;;;;15.18;6.82;;;;;;;-4.52;36.10;99944.31;4828880;29;20056;-78
2022/03/12 07:08:48;;;;;;;14.70;6.65;;;;;;;-4.47;36.05;99932.13;4841375;29;20417;-79
2022/03/12 07:11:15;;;;;;;17.50;6.60;;;;;;;-4.42;36.70;99932.06;4804416;29;20050;-79
2022/03/12 07:13:42;;;;;;;15.05;5.78;;;;;;;-4.37;35.81;99938.09;4828901;29;20201;-79
2022/03/12 07:16:08;;;;;;;14.52;5.32;;;;;;;-4.33;35.29;99929.34;4798414;29;20144;-78
2022/03/12 07:18:34;;;;;;;9.95;5.97;;;;;;;-3.96;35.30;99939.41;4798632;29;20050;-80
2022/03/12 07:21:00;;;;;;;12.95;5.07;;;;;;;-4.30;35.54;99937.16;4828520;29;20107;-79
2022/03/12 07:23:26;;;;;;;6.35;3.58;;;;;;;-4.75;34.92;99928.88;4813922;29;20597;-79
2022/03/12 07:25:52;;;;;;;11.70;4.85;;;;;;;-4.75;35.41;99921.06;4828479;29;20092;-79
2022/03/12 07:28:20;;;;;;;9.52;3.92;;;;;;;-4.90;34.91;99929.00;4814041;29;20053;-81
2022/03/12 07:30:46;;;;;;;19.20;4.65;;;;;;;-4.61;35.73;99917.47;4810595;29;20058;-79
2022/03/12 07:33:12;;;;;;;7.03;3.95;;;;;;;-4.22;35.55;99909.22;4810249;29;20122;-79
2022/03/12 07:35:38;;;;;;;8.43;4.28;;;;;;;-4.39;35.05;99908.56;4825179;29;20111;-81
2022/03/12 07:38:04;;;;;;;11.35;4.40;;;;;;;-4.16;34.88;99917.00;4824790;29;20058;-79
2022/03/12 07:40:31;;;;;;;9.13;5.10;;;;;;;-4.11;34.24;99908.25;4810126;29;20062;-79
2022/03/12 07:42:57;;;;;;;10.68;4.88;;;;;;;-4.15;34.38;99905.66;4826250;29;20065;-80
2022/03/12 07:45:25;;;;;;;10.00;4.10;;;;;;;-4.81;34.74;99900.25;4810514;29;20062;-80
2022/03/12 07:47:52;;;;;;;5.82;3.58;;;;;;;-4.87;34.88;99897.69;4825140;29;20054;-80
2022/03/12 07:50:19;;;;;;;8.52;3.88;;;;;;;-5.00;34.97;99896.06;4825633;29;20090;-80
2022/03/12 07:52:45;;;;;;;9.52;3.75;;;;;;;-4.78;35.40;99905.44;4823365;29;20050;-81
2022/03/12 07:55:12;;;;;;;13.48;4.10;;;;;;;-4.64;34.88;99900.09;4810462;29;20142;-80
2022/03/12 07:57:47;;;;;;;8.75;3.83;;;;;;;-4.44;34.80;99897.28;4809526;29;20219;-82
2022/03/12 08:00:34;;;;;;;21.92;4.07;;;;;;;-4.66;35.21;99900.13;4794716;29;20059;-83
2022/03/12 08:03:00;;;;;;;8.35;3.22;;;;;;;-4.60;34.47;99888.75;4806767;29;20096;-79
2022/03/12 08:05:26;;;;;;;9.43;4.22;;;;;;;-4.59;35.18;99892.22;4809186;29;20051;-82
2022/03/12 08:07:56;;;;;;;8.65;3.80;;;;;;;-3.79;36.21;99879.13;4795291;29;20058;-83
2022/03/12 08:10:23;;;;;;;10.60;3.67;;;;;;;-3.22;34.03;99882.66;4777771;29;20066;-80
2022/03/12 08:12:50;;;;;;;5.38;3.47;;;;;;;-3.46;32.84;99883.00;4794204;29;20058;-81
2022/03/12 08:15:18;;;;;;;6.20;3.53;;;;;;;-3.86;32.70;99891.41;4807876;29;20055;-81
2022/03/12 08:17:47;;;;;;;6.97;3.60;;;;;;;-3.97;32.73;99880.22;4809083;29;20066;-81
2022/03/12 08:20:14;;;;;;;12.48;3.95;;;;;;;-3.75;33.28;99871.22;4776141;29;20057;-81
2022/03/12 08:22:45;;;;;;;5.97;3.47;;;;;;;-3.48;33.40;99871.72;4798160;29;20135;-80
2022/03/12 08:25:13;;;;;;;8.48;3.33;;;;;;;-3.34;32.46;99877.63;4807599;29;20468;-81
2022/03/12 08:27:40;;;;;;;9.73;4.40;;;;;;;-3.80;32.66;99866.94;4790628;29;20082;-82
2022/03/12 08:30:08;;;;;;;7.88;3.80;;;;;;;-3.86;33.02;99869.66;4806142;29;20063;-79
2022/03/12 08:32:36;;;;;;;7.53;4.35;;;;;;;-3.84;33.00;99863.50;4806647;29;20055;-82
2022/03/12 08:35:05;;;;;;;7.88;3.85;;;;;;;-3.96;33.34;99881.94;4807008;29;20115;-82
2022/03/12 08:37:32;;;;;;;7.78;4.15;;;;;;;-3.75;33.38;99866.00;4806976;29;20093;-80
2022/03/12 08:39:58;;;;;;;7.88;3.08;;;;;;;-3.80;32.48;99873.03;4805665;29;20051;-84
2022/03/12 08:42:24;;;;;;;6.90;3.42;;;;;;;-3.64;33.13;99867.59;4790238;29;20062;-85
2022/03/12 08:44:51;;;;;;;9.75;3.95;;;;;;;-3.44;32.72;99868.19;4806085;29;20058;-83
2022/03/12 08:47:18;;;;;;;2.83;2.50;;;;;;;-3.60;32.84;99864.06;4805887;29;20116;-84
2022/03/12 08:49:44;;;;;;;7.10;3.63;;;;;;;-3.58;32.80;99862.28;4790554;29;20110;-82
2022/03/12 08:52:10;;;;;;;4.53;3.08;;;;;;;-3.38;32.61;99860.25;4789911;29;20063;-85
2022/03/12 08:54:35;;;;;;;6.05;3.00;;;;;;;-3.14;32.03;99850.28;4790582;29;20073;-83
2022/03/12 08:57:02;;;;;;;6.32;3.33;;;;;;;-2.86;32.70;99848.91;4821826;29;20054;-84
2022/03/12 08:59:28;;;;;;;8.55;4.45;;;;;;;-2.73;31.83;99834.75;4807299;29;20062;-80
2022/03/12 09:01:54;;;;;;;13.48;3.97;;;;;;;-2.41;32.30;99848.97;4808999;29;20427;-89
2022/03/12 09:04:20;;;;;;;5.13;3.67;;;;;;;-2.07;31.36;99840.44;4817533;29;20066;-88
2022/03/12 09:06:47;;;;;;;13.15;4.35;;;;;;;-1.65;31.09;99836.06;4837566;29;20061;-87
2022/03/12 09:09:13;;;;;;;6.93;3.83;;;;;;;-1.69;30.91;99846.63;4828141;29;20042;-87
2022/03/12 09:11:39;;;;;;;16.30;3.50;;;;;;;-1.63;30.68;99846.50;4845519;29;20103;-90
2022/03/12 09:14:05;;;;;;;13.63;3.70;;;;;;;-1.62;30.10;99848.22;4845606;29;20062;-89
2022/03/12 09:16:32;;;;;;;7.13;3.88;;;;;;;-1.73;31.17;99849.34;4838677;29;20147;-89
2022/03/12 09:18:58;;;;;;;5.85;3.22;;;;;;;-1.83;31.00;99847.78;4827118;29;20124;-90
2022/03/12 09:21:24;;;;;;;5.78;3.80;;;;;;;-1.96;31.67;99848.94;4829930;29;20057;-90
2022/03/12 09:23:52;;;;;;;9.23;4.20;;;;;;;-1.74;31.60;99839.72;4833543;29;20058;-92
2022/03/12 09:26:19;;;;;;;7.70;3.20;;;;;;;-2.17;30.72;99844.16;4829371;29;20054;-90
2022/03/12 09:28:45;;;;;;;5.05;3.10;;;;;;;-2.50;31.39;99849.16;4829984;29;20533;-89
2022/03/12 09:31:11;;;;;;;13.30;3.67;;;;;;;-2.71;32.09;99855.63;4828022;29;20137;-90
2022/03/12 09:33:38;;;;;;;6.25;3.38;;;;;;;-2.83;32.13;99848.88;4827498;29;20073;-91
2022/03/12 09:36:06;;;;;;;6.28;3.25;;;;;;;-2.55;32.45;99851.00;4795749;29;20058;-89
2022/03/12 09:38:32;;;;;;;5.50;3.10;;;;;;;-2.33;31.74;99849.72;4808934;29;20076;-86
2022/03/12 09:40:58;;;;;;;9.05;3.45;;;;;;;-2.35;31.80;99843.63;4809054;29;20055;-87
2022/03/12 09:43:24;;;;;;;4.53;2.92;;;;;;;-1.86;31.15;99855.72;4825077;29;20054;-88
2022/03/12 09:45:50;;;;;;;8.25;3.50;;;;;;;-1.86;31.24;99853.09;4825963;29;20464;-88
2022/03/12 09:48:15;;;;;;;4.00;2.92;;;;;;;-1.78;30.68;99848.53;4824575;29;20061;-88
2022/03/12 09:50:41;;;;;;;3.10;2.70;;;;;;;-2.25;30.79;99844.31;4825288;29;20062;-86
2022/03/12 09:53:07;;;;;;;5.95;2.70;;;;;;;-2.56;31.07;99851.88;4824563;29;20054;-87
2022/03/12 09:55:34;;;;;;;5.03;2.70;;;;;;;-2.73;31.49;99849.59;4824645;29;20407;-86
2022/03/12 09:58:00;;;;;;;4.20;2.13;;;;;;;-2.85;31.39;99840.19;4809428;29;20547;-89
2022/03/12 10:00:28;;;;;;;4.32;3.00;;;;;;;-2.77;31.51;99837.44;4825740;29;20062;-88
2022/03/12 10:02:54;;;;;;;4.20;2.67;;;;;;;-2.83;31.88;99842.78;4827831;29;20073;-89
2022/03/12 10:05:20;;;;;;;1.98;1.88;;;;;;;-2.77;31.35;99838.31;4825882;29;20127;-87
2022/03/12 10:07:45;;;;;;;4.10;2.53;;;;;;;-2.66;31.71;99840.72;4823974;29;20085;-87
2022/03/12 10:10:15;;;;;;;11.60;2.83;;;;;;;-2.51;31.46;99834.34;4823690;29;20054;-87
2022/03/12 10:12:43;;;;;;;3.17;2.28;;;;;;;-2.77;31.88;99835.69;4808865;29;20054;-93
2022/03/12 10:15:11;;;;;;;3.78;2.72;;;;;;;-2.69;31.62;99836.41;4809300;29;20055;-87
2022/03/12 10:17:37;;;;;;;5.93;2.75;;;;;;;-2.78;31.97;99833.97;4824840;29;20062;-85
2022/03/12 10:20:08;;;;;;;5.05;1.75;;;;;;;-2.80;31.48;99833.13;4808116;29;20078;-91
2022/03/12 10:22:35;;;;;;;3.13;2.60;;;;;;;-2.60;32.12;99840.59;4826393;29;20137;-87
2022/03/12 10:25:01;;;;;;;3.28;2.40;;;;;;;-2.48;31.43;99834.28;4810717;29;20058;-86
2022/03/12 10:27:28;;;;;;;2.78;2.17;;;;;;;-2.58;30.77;99832.75;4825654;29;20136;-86
2022/03/12 10:29:54;;;;;;;5.20;2.00;;;;;;;-2.48;30.94;99834.28;4823329;29;20227;-85
2022/03/12 10:32:28;;;;;;;3.60;2.70;;;;;;;-1.98;31.10;99841.13;4825354;29;20529;-86
2022/03/12 10:34:59;;;;;;;2.35;2.08;;;;;;;-1.50;30.29;99843.56;4796700;29;20054;-86
2022/03/12 10:37:27;;;;;;;11.13;4.25;;;;;;;-1.25;30.11;99833.34;4826832;29;20062;-85
2022/03/12 10:40:24;;;;;;;5.88;3.22;;;;;;;-1.22;28.96;99837.66;4796462;29;20083;-86
2022/03/12 10:42:56;;;;;;;3.75;2.15;;;;;;;-1.51;29.37;99835.72;4823700;29;20111;-86
2022/03/12 10:45:25;;;;;;;3.53;2.53;;;;;;;-1.66;29.80;99830.81;4826757;29;20082;-84
2022/03/12 10:47:56;;;;;;;5.30;2.90;;;;;;;-1.67;29.13;99834.34;4826315;29;20061;-86
2022/03/12 10:50:29;;;;;;;4.15;3.15;;;;;;;-1.72;29.95;99822.22;4811307;29;20066;-84
2022/03/12 10:52:59;;;;;;;10.05;3.63;;;;;;;-1.00;30.89;99832.75;4811443;29;20419;-84
2022/03/12 10:55:26;;;;;;;;;;;;;;;-0.84;31.09;99833.22;4811551;29;20404;-85
2022/03/12 10:57:59;;;;;;;9.88;4.30;;;;;;;-0.57;31.63;99836.88;4811013;29;20015;-87
2022/03/12 11:00:31;;;;;;;8.45;4.47;;;;;;;-0.27;31.13;99825.53;4827188;29;20064;-85
2022/03/12 11:03:03;;;;;;;7.75;3.47;;;;;;;0.17;30.33;99833.91;4826022;29;20527;-85
2022/03/12 11:05:35;;;;;;;14.75;5.18;;;;;;;0.15;30.65;99830.47;4796351;29;20050;-85
2022/03/12 11:08:23;;;;;;;15.38;5.88;;;;;;;0.14;30.52;99826.09;4826107;29;20410;-85
2022/03/12 11:11:13;;;;;;;14.68;7.15;;;;;;;0.51;30.77;99830.25;4826346;29;20427;-86
2022/03/12 11:13:47;;;;;;;15.57;7.55;;;;;;;1.27;30.30;99836.53;4811400;29;20399;-87
2022/03/12 11:16:19;;;;;;;18.13;7.78;;;;;;;1.35;29.70;99835.34;4827489;29;20070;-87
2022/03/12 11:18:51;;;;;;;14.27;7.80;;;;;;;1.97;29.09;99834.03;4795752;29;20063;-87
2022/03/12 11:21:28;;;;;;;13.38;7.80;;;;;;;2.31;29.57;99816.94;4826343;29;20164;-86
2022/03/12 11:23:55;;;;;;;15.38;7.53;;;;;;;2.55;28.69;99834.44;4824986;29;20054;-87
2022/03/12 11:26:22;;;;;;;16.05;6.80;;;;;;;2.25;28.96;99823.31;4827656;29;20069;-85
2022/03/12 11:28:58;;;;;;;10.00;5.55;;;;;;;1.87;29.16;99819.47;4825628;29;20058;-86
2022/03/12 11:31:42;;;;;;;10.75;6.07;;;;;;;2.14;29.72;99825.50;4825267;29;20094;-84